sensor_id;sensor_type;location;lat;lon;timestamp;pressure;altitude;pressure_sealevel;temperature;humidity
77452;BME280;66537;52.370;4.832;2023-04-08T00:01:51;102395.28;;;9.56;87.09
77452;BME280;66537;52.370;4.832;2023-04-08T00:04:17;102389.19;;;9.16;87.09
77452;BME280;66537;52.370;4.832;2023-04-08T00:06:42;102392.66;;;9.15;88.25
77452;BME280;66537;52.370;4.832;2023-04-08T00:09:07;102392.69;;;9.29;88.77
77452;BME280;66537;52.370;4.832;2023-04-08T00:11:33;102389.22;;;9.22;88.21
77452;BME280;66537;52.370;4.832;2023-04-08T00:13:59;102389.22;;;9.13;88.12
77452;BME280;66537;52.370;4.832;2023-04-08T00:16:24;102392.63;;;9.03;88.07
77452;BME280;66537;52.370;4.832;2023-04-08T00:18:50;102388.31;;;8.97;88.08
77452;BME280;66537;52.370;4.832;2023-04-08T00:21:16;102390.00;;;8.86;88.34
77452;BME280;66537;52.370;4.832;2023-04-08T00:23:44;102389.97;;;8.79;88.40
77452;BME280;66537;52.370;4.832;2023-04-08T00:26:09;102385.66;;;8.69;89.02
77452;BME280;66537;52.370;4.832;2023-04-08T00:28:35;102383.88;;;8.63;89.54
77452;BME280;66537;52.370;4.832;2023-04-08T00:31:00;102389.88;;;8.53;90.22
77452;BME280;66537;52.370;4.832;2023-04-08T00:33:26;102389.81;;;8.43;90.73
77452;BME280;66537;52.370;4.832;2023-04-08T00:35:51;102397.59;;;8.46;91.38
77452;BME280;66537;52.370;4.832;2023-04-08T00:38:16;102395.84;;;8.45;91.61
77452;BME280;66537;52.370;4.832;2023-04-08T00:40:42;102397.56;;;8.43;91.73
77452;BME280;66537;52.370;4.832;2023-04-08T00:43:07;102393.28;;;8.45;91.79
77452;BME280;66537;52.370;4.832;2023-04-08T00:45:33;102394.16;;;8.50;91.42
77452;BME280;66537;52.370;4.832;2023-04-08T00:47:58;102398.47;;;8.48;91.60
77452;BME280;66537;52.370;4.832;2023-04-08T00:50:23;102391.53;;;8.42;91.49
77452;BME280;66537;52.370;4.832;2023-04-08T00:52:49;102400.94;;;8.33;91.44
77452;BME280;66537;52.370;4.832;2023-04-08T00:55:14;102398.34;;;8.31;91.48
77452;BME280;66537;52.370;4.832;2023-04-08T00:57:40;102397.41;;;8.18;91.37
77452;BME280;66537;52.370;4.832;2023-04-08T01:00:06;102394.75;;;8.11;91.20
77452;BME280;66537;52.370;4.832;2023-04-08T01:05:31;102396.41;;;8.00;92.13
77452;BME280;66537;52.370;4.832;2023-04-08T01:08:01;102402.41;;;7.93;92.33
77452;BME280;66537;52.370;4.832;2023-04-08T01:10:30;102405.75;;;7.86;92.55
77452;BME280;66537;52.370;4.832;2023-04-08T01:13:03;102403.22;;;7.89;93.15
77452;BME280;66537;52.370;4.832;2023-04-08T01:15:32;102403.31;;;8.02;93.39
77452;BME280;66537;52.370;4.832;2023-04-08T01:18:01;102411.97;;;8.09;93.16
77452;BME280;66537;52.370;4.832;2023-04-08T01:20:30;102403.22;;;7.87;92.77
77452;BME280;66537;52.370;4.832;2023-04-08T01:25:35;102407.41;;;7.73;93.01
77452;BME280;66537;52.370;4.832;2023-04-08T01:28:07;102410.75;;;7.65;92.78
77452;BME280;66537;52.370;4.832;2023-04-08T01:30:33;102411.63;;;7.65;93.09
77452;BME280;66537;52.370;4.832;2023-04-08T01:33:01;102409.00;;;7.59;93.01
77452;BME280;66537;52.370;4.832;2023-04-08T01:35:27;102414.06;;;7.53;93.22
77452;BME280;66537;52.370;4.832;2023-04-08T01:37:53;102414.00;;;7.44;93.40
77452;BME280;66537;52.370;4.832;2023-04-08T01:40:19;102409.72;;;7.43;93.68
77452;BME280;66537;52.370;4.832;2023-04-08T01:42:47;102422.56;;;7.40;93.78
77452;BME280;66537;52.370;4.832;2023-04-08T01:45:13;102414.84;;;7.42;94.04
77452;BME280;66537;52.370;4.832;2023-04-08T01:47:40;102415.69;;;7.39;94.34
77452;BME280;66537;52.370;4.832;2023-04-08T01:50:07;102409.72;;;7.43;94.34
77452;BME280;66537;52.370;4.832;2023-04-08T01:52:34;102418.31;;;7.45;94.26
77452;BME280;66537;52.370;4.832;2023-04-08T01:55:01;102418.28;;;7.41;94.04
77452;BME280;66537;52.370;4.832;2023-04-08T01:57:31;102416.53;;;7.38;94.12
77452;BME280;66537;52.370;4.832;2023-04-08T02:00:02;102422.56;;;7.42;94.29
77452;BME280;66537;52.370;4.832;2023-04-08T02:02:31;102431.06;;;7.32;94.39
77452;BME280;66537;52.370;4.832;2023-04-08T02:04:57;102426.88;;;7.43;94.69
77452;BME280;66537;52.370;4.832;2023-04-08T02:07:22;102432.09;;;7.53;94.90
77452;BME280;66537;52.370;4.832;2023-04-08T02:09:49;102426.94;;;7.52;95.02
77452;BME280;66537;52.370;4.832;2023-04-08T02:12:14;102431.28;;;7.57;94.51
77452;BME280;66537;52.370;4.832;2023-04-08T02:14:40;102430.41;;;7.52;94.64
77452;BME280;66537;52.370;4.832;2023-04-08T02:17:12;102425.41;;;7.70;95.26
77452;BME280;66537;52.370;4.832;2023-04-08T02:19:59;102427.13;;;7.71;94.95
77452;BME280;66537;52.370;4.832;2023-04-08T02:23:12;102430.59;;;7.75;95.10
77452;BME280;66537;52.370;4.832;2023-04-08T02:25:41;102427.19;;;7.79;94.87
77452;BME280;66537;52.370;4.832;2023-04-08T02:28:09;102427.28;;;7.92;94.80
77452;BME280;66537;52.370;4.832;2023-04-08T02:30:37;102429.97;;;8.03;94.54
77452;BME280;66537;52.370;4.832;2023-04-08T02:33:06;102430.00;;;8.10;94.44
77452;BME280;66537;52.370;4.832;2023-04-08T02:35:33;102436.78;;;7.98;94.24
77452;BME280;66537;52.370;4.832;2023-04-08T02:37:59;102442.75;;;7.91;94.59
77452;BME280;66537;52.370;4.832;2023-04-08T02:40:30;102442.84;;;8.04;94.50
77452;BME280;66537;52.370;4.832;2023-04-08T02:42:56;102439.34;;;7.98;93.99
77452;BME280;66537;52.370;4.832;2023-04-08T02:45:26;102444.50;;;7.96;93.56
77452;BME280;66537;52.370;4.832;2023-04-08T02:47:52;102441.88;;;7.90;93.51
77452;BME280;66537;52.370;4.832;2023-04-08T02:50:17;102440.16;;;7.91;93.76
77452;BME280;66537;52.370;4.832;2023-04-08T02:52:42;102449.66;;;7.93;93.94
77452;BME280;66537;52.370;4.832;2023-04-08T02:55:09;102452.19;;;7.92;93.78
77452;BME280;66537;52.370;4.832;2023-04-08T02:57:36;102447.06;;;7.93;93.86
77452;BME280;66537;52.370;4.832;2023-04-08T03:00:03;102451.41;;;8.00;93.63
77452;BME280;66537;52.370;4.832;2023-04-08T03:02:29;102451.34;;;7.94;93.37
77452;BME280;66537;52.370;4.832;2023-04-08T03:04:54;102453.88;;;7.90;93.46
77452;BME280;66537;52.370;4.832;2023-04-08T03:07:19;102448.66;;;7.78;92.93
77452;BME280;66537;52.370;4.832;2023-04-08T03:09:45;102454.56;;;7.68;92.57
77452;BME280;66537;52.370;4.832;2023-04-08T03:12:10;102453.69;;;7.64;93.25
77452;BME280;66537;52.370;4.832;2023-04-08T03:14:35;102461.31;;;7.52;93.01
77452;BME280;66537;52.370;4.832;2023-04-08T03:17:01;102462.94;;;7.44;93.51
77452;BME280;66537;52.370;4.832;2023-04-08T03:19:26;102465.44;;;7.40;93.54
77452;BME280;66537;52.370;4.832;2023-04-08T03:21:51;102454.13;;;7.22;93.38
77452;BME280;66537;52.370;4.832;2023-04-08T03:24:17;102451.53;;;7.22;93.93
77452;BME280;66537;52.370;4.832;2023-04-08T03:26:42;102460.88;;;7.14;93.77
77452;BME280;66537;52.370;4.832;2023-04-08T03:29:07;102465.13;;;7.09;93.12
77452;BME280;66537;52.370;4.832;2023-04-08T03:31:34;102462.47;;;7.03;93.60
77452;BME280;66537;52.370;4.832;2023-04-08T03:33:59;102469.22;;;6.94;93.49
77452;BME280;66537;52.370;4.832;2023-04-08T03:36:24;102475.19;;;6.88;93.58
77452;BME280;66537;52.370;4.832;2023-04-08T03:38:50;102466.56;;;6.86;93.52
77452;BME280;66537;52.370;4.832;2023-04-08T03:41:16;102468.28;;;6.86;93.52
77452;BME280;66537;52.370;4.832;2023-04-08T03:43:41;102468.25;;;6.83;93.30
77452;BME280;66537;52.370;4.832;2023-04-08T03:46:06;102479.25;;;6.71;93.21
77452;BME280;66537;52.370;4.832;2023-04-08T03:48:32;102469.56;;;6.52;92.99
77452;BME280;66537;52.370;4.832;2023-04-08T03:50:57;102473.06;;;6.60;93.11
77452;BME280;66537;52.370;4.832;2023-04-08T03:53:23;102476.50;;;6.59;92.96
77452;BME280;66537;52.370;4.832;2023-04-08T03:55:48;102473.84;;;6.53;92.97
77452;BME280;66537;52.370;4.832;2023-04-08T03:58:17;102476.44;;;6.55;92.91
77452;BME280;66537;52.370;4.832;2023-04-08T04:00:42;102479.78;;;6.48;92.71
77452;BME280;66537;52.370;4.832;2023-04-08T04:03:07;102480.38;;;6.31;92.61
77452;BME280;66537;52.370;4.832;2023-04-08T04:05:34;102485.63;;;6.39;92.86
77452;BME280;66537;52.370;4.832;2023-04-08T04:08:01;102480.47;;;6.37;92.56
77452;BME280;66537;52.370;4.832;2023-04-08T04:10:26;102471.78;;;6.31;92.34
77452;BME280;66537;52.370;4.832;2023-04-08T04:12:51;102481.25;;;6.32;92.32
77452;BME280;66537;52.370;4.832;2023-04-08T04:15:17;102485.53;;;6.33;92.06
77452;BME280;66537;52.370;4.832;2023-04-08T04:17:42;102482.06;;;6.29;91.96
77452;BME280;66537;52.370;4.832;2023-04-08T04:20:08;102486.97;;;6.14;91.89
77452;BME280;66537;52.370;4.832;2023-04-08T04:22:33;102485.31;;;6.19;91.68
77452;BME280;66537;52.370;4.832;2023-04-08T04:24:59;102490.41;;;6.13;91.17
77452;BME280;66537;52.370;4.832;2023-04-08T04:27:24;102490.22;;;6.04;91.08
77452;BME280;66537;52.370;4.832;2023-04-08T04:29:49;102497.16;;;6.10;91.08
77452;BME280;66537;52.370;4.832;2023-04-08T04:32:15;102501.34;;;6.02;90.66
77452;BME280;66537;52.370;4.832;2023-04-08T04:34:40;102500.25;;;5.88;90.57
77452;BME280;66537;52.370;4.832;2023-04-08T04:37:06;102498.63;;;5.94;91.43
77452;BME280;66537;52.370;4.832;2023-04-08T04:39:31;102500.47;;;6.01;91.40
77452;BME280;66537;52.370;4.832;2023-04-08T04:41:56;102507.41;;;6.07;90.89
77452;BME280;66537;52.370;4.832;2023-04-08T04:44:22;102509.94;;;6.04;90.64
77452;BME280;66537;52.370;4.832;2023-04-08T04:46:48;102508.09;;;5.97;90.25
77452;BME280;66537;52.370;4.832;2023-04-08T04:49:13;102517.59;;;6.01;89.91
77452;BME280;66537;52.370;4.832;2023-04-08T04:51:38;102515.69;;;5.91;89.59
77452;BME280;66537;52.370;4.832;2023-04-08T04:54:04;102514.03;;;5.94;89.32
77452;BME280;66537;52.370;4.832;2023-04-08T04:56:29;102522.81;;;6.07;89.35
77452;BME280;66537;52.370;4.832;2023-04-08T04:58:55;102516.44;;;5.84;88.70
77452;BME280;66537;52.370;4.832;2023-04-08T05:01:20;102521.63;;;5.87;89.33
77452;BME280;66537;52.370;4.832;2023-04-08T05:03:45;102522.56;;;5.90;89.06
77452;BME280;66537;52.370;4.832;2023-04-08T05:06:11;102521.72;;;5.91;89.34
77452;BME280;66537;52.370;4.832;2023-04-08T05:08:36;102521.94;;;6.05;88.98
77452;BME280;66537;52.370;4.832;2023-04-08T05:11:01;102520.81;;;5.89;87.73
77452;BME280;66537;52.370;4.832;2023-04-08T05:13:28;102524.28;;;5.91;87.46
77452;BME280;66537;52.370;4.832;2023-04-08T05:15:53;102528.72;;;6.00;88.08
77452;BME280;66537;52.370;4.832;2023-04-08T05:18:18;102530.31;;;5.93;87.80
77452;BME280;66537;52.370;4.832;2023-04-08T05:20:44;102536.66;;;6.15;88.75
77452;BME280;66537;52.370;4.832;2023-04-08T05:23:10;102535.94;;;6.23;88.66
77452;BME280;66537;52.370;4.832;2023-04-08T05:25:35;102537.72;;;6.27;88.40
77452;BME280;66537;52.370;4.832;2023-04-08T05:28:01;102541.06;;;6.22;86.99
77452;BME280;66537;52.370;4.832;2023-04-08T05:30:26;102546.19;;;6.22;86.58
77452;BME280;66537;52.370;4.832;2023-04-08T05:32:52;102543.72;;;6.26;87.11
77452;BME280;66537;52.370;4.832;2023-04-08T05:35:17;102548.88;;;6.28;86.66
77452;BME280;66537;52.370;4.832;2023-04-08T05:37:43;102545.59;;;6.38;86.65
77452;BME280;66537;52.370;4.832;2023-04-08T05:40:08;102558.56;;;6.44;86.36
77452;BME280;66537;52.370;4.832;2023-04-08T05:42:34;102557.50;;;6.33;85.51
77452;BME280;66537;52.370;4.832;2023-04-08T05:44:59;102556.78;;;6.42;86.13
77452;BME280;66537;52.370;4.832;2023-04-08T05:47:25;102556.25;;;6.62;86.54
77452;BME280;66537;52.370;4.832;2023-04-08T05:49:50;102564.41;;;6.35;84.61
77452;BME280;66537;52.370;4.832;2023-04-08T05:52:16;102562.56;;;6.27;85.62
77452;BME280;66537;52.370;4.832;2023-04-08T05:54:42;102575.44;;;6.28;84.71
77452;BME280;66537;52.370;4.832;2023-04-08T05:57:07;102575.34;;;6.22;84.04
77452;BME280;66537;52.370;4.832;2023-04-08T05:59:33;102576.09;;;6.17;84.21
77452;BME280;66537;52.370;4.832;2023-04-08T06:01:58;102577.06;;;6.23;84.45
77452;BME280;66537;52.370;4.832;2023-04-08T06:04:23;102582.19;;;6.22;83.77
77452;BME280;66537;52.370;4.832;2023-04-08T06:06:49;102587.50;;;6.32;83.07
77452;BME280;66537;52.370;4.832;2023-04-08T06:09:14;102588.53;;;6.42;82.85
77452;BME280;66537;52.370;4.832;2023-04-08T06:11:39;102595.69;;;6.63;82.79
77452;BME280;66537;52.370;4.832;2023-04-08T06:14:05;102598.22;;;6.60;81.83
77452;BME280;66537;52.370;4.832;2023-04-08T06:16:30;102601.81;;;6.71;80.95
77452;BME280;66537;52.370;4.832;2023-04-08T06:18:56;102607.59;;;6.56;79.24
77452;BME280;66537;52.370;4.832;2023-04-08T06:21:21;102600.84;;;6.63;79.81
77452;BME280;66537;52.370;4.832;2023-04-08T06:23:46;102600.03;;;6.65;78.98
77452;BME280;66537;52.370;4.832;2023-04-08T06:26:12;102600.91;;;6.66;78.58
77452;BME280;66537;52.370;4.832;2023-04-08T06:28:37;102612.50;;;6.95;80.39
77452;BME280;66537;52.370;4.832;2023-04-08T06:31:02;102609.06;;;6.96;77.92
77452;BME280;66537;52.370;4.832;2023-04-08T06:33:28;102613.31;;;6.94;78.16
77452;BME280;66537;52.370;4.832;2023-04-08T06:36:06;102616.09;;;7.10;78.98
77452;BME280;66537;52.370;4.832;2023-04-08T06:38:32;102611.66;;;6.97;77.25
77452;BME280;66537;52.370;4.832;2023-04-08T06:41:05;102624.84;;;7.20;78.19
77452;BME280;66537;52.370;4.832;2023-04-08T06:43:31;102620.41;;;7.10;75.92
77452;BME280;66537;52.370;4.832;2023-04-08T06:45:56;102628.44;;;7.34;77.32
77452;BME280;66537;52.370;4.832;2023-04-08T06:48:22;102626.72;;;7.32;76.44
77452;BME280;66537;52.370;4.832;2023-04-08T06:50:52;102626.81;;;7.39;74.71
77452;BME280;66537;52.370;4.832;2023-04-08T06:53:17;102638.97;;;7.51;75.52
77452;BME280;66537;52.370;4.832;2023-04-08T06:55:42;102637.16;;;7.44;73.58
77452;BME280;66537;52.370;4.832;2023-04-08T06:58:08;102641.75;;;7.69;73.47
77452;BME280;66537;52.370;4.832;2023-04-08T07:00:33;102638.16;;;8.30;71.55
77452;BME280;66537;52.370;4.832;2023-04-08T07:02:58;102630.69;;;8.61;68.96
77452;BME280;66537;52.370;4.832;2023-04-08T07:05:24;102638.78;;;9.16;69.74
77452;BME280;66537;52.370;4.832;2023-04-08T07:07:49;102640.78;;;9.72;66.02
77452;BME280;66537;52.370;4.832;2023-04-08T07:10:15;102644.31;;;10.09;64.56
77452;BME280;66537;52.370;4.832;2023-04-08T07:12:40;102653.91;;;10.39;63.33
77452;BME280;66537;52.370;4.832;2023-04-08T07:15:06;102645.25;;;11.03;61.64
77452;BME280;66537;52.370;4.832;2023-04-08T07:17:31;102652.59;;;12.12;61.57
77452;BME280;66537;52.370;4.832;2023-04-08T07:19:57;102655.44;;;12.89;59.01
77452;BME280;66537;52.370;4.832;2023-04-08T07:22:22;102656.41;;;13.61;55.83
77452;BME280;66537;52.370;4.832;2023-04-08T07:24:47;102656.91;;;13.89;54.13
77452;BME280;66537;52.370;4.832;2023-04-08T07:27:14;102662.03;;;14.54;53.69
77452;BME280;66537;52.370;4.832;2023-04-08T07:29:40;102660.69;;;14.84;51.29
77452;BME280;66537;52.370;4.832;2023-04-08T07:32:06;102662.44;;;14.82;49.38
77452;BME280;66537;52.370;4.832;2023-04-08T07:34:34;102663.59;;;15.14;48.52
77452;BME280;66537;52.370;4.832;2023-04-08T07:37:00;102665.69;;;14.96;48.79
77452;BME280;66537;52.370;4.832;2023-04-08T07:39:27;102670.13;;;15.35;48.98
77452;BME280;66537;52.370;4.832;2023-04-08T07:41:53;102678.22;;;15.67;48.66
77452;BME280;66537;52.370;4.832;2023-04-08T07:44:18;102675.47;;;16.13;47.30
77452;BME280;66537;52.370;4.832;2023-04-08T07:46:44;102674.84;;;16.40;46.30
77452;BME280;66537;52.370;4.832;2023-04-08T07:49:10;102674.66;;;16.11;46.99
77452;BME280;66537;52.370;4.832;2023-04-08T07:51:36;102668.69;;;16.06;47.17
77452;BME280;66537;52.370;4.832;2023-04-08T07:54:02;102667.66;;;16.85;44.86
77452;BME280;66537;52.370;4.832;2023-04-08T07:56:27;102673.72;;;16.13;46.15
77452;BME280;66537;52.370;4.832;2023-04-08T07:58:53;102675.59;;;16.82;45.82
77452;BME280;66537;52.370;4.832;2023-04-08T08:01:20;102671.34;;;17.10;44.80
77452;BME280;66537;52.370;4.832;2023-04-08T08:03:47;102676.06;;;16.97;44.42
77452;BME280;66537;52.370;4.832;2023-04-08T08:06:13;102679.16;;;16.43;44.87
77452;BME280;66537;52.370;4.832;2023-04-08T08:08:38;102681.81;;;16.76;46.07
77452;BME280;66537;52.370;4.832;2023-04-08T08:11:03;102680.72;;;17.19;46.57
77452;BME280;66537;52.370;4.832;2023-04-08T08:13:29;102681.25;;;17.62;44.77
77452;BME280;66537;52.370;4.832;2023-04-08T08:15:54;102675.25;;;17.87;43.47
77452;BME280;66537;52.370;4.832;2023-04-08T08:18:20;102687.97;;;17.07;44.73
77452;BME280;66537;52.370;4.832;2023-04-08T08:20:45;102687.88;;;17.75;44.74
77452;BME280;66537;52.370;4.832;2023-04-08T08:23:11;102689.28;;;17.85;43.49
77452;BME280;66537;52.370;4.832;2023-04-08T08:25:36;102695.00;;;17.99;42.78
77452;BME280;66537;52.370;4.832;2023-04-08T08:28:01;102692.81;;;18.13;42.69
77452;BME280;66537;52.370;4.832;2023-04-08T08:30:27;102690.28;;;17.81;43.56
77452;BME280;66537;52.370;4.832;2023-04-08T08:32:52;102700.34;;;17.94;43.45
77452;BME280;66537;52.370;4.832;2023-04-08T08:35:18;102709.00;;;17.98;43.25
77452;BME280;66537;52.370;4.832;2023-04-08T08:37:43;102705.69;;;18.21;42.56
77452;BME280;66537;52.370;4.832;2023-04-08T08:40:09;102710.19;;;18.16;43.75
77452;BME280;66537;52.370;4.832;2023-04-08T08:42:34;102700.22;;;18.56;43.13
77452;BME280;66537;52.370;4.832;2023-04-08T08:45:01;102702.69;;;18.86;43.01
77452;BME280;66537;52.370;4.832;2023-04-08T08:47:27;102702.47;;;18.66;42.64
77452;BME280;66537;52.370;4.832;2023-04-08T08:49:53;102707.63;;;18.42;43.05
77452;BME280;66537;52.370;4.832;2023-04-08T08:52:18;102703.75;;;18.26;43.88
77452;BME280;66537;52.370;4.832;2023-04-08T08:54:44;102711.03;;;17.88;44.84
77452;BME280;66537;52.370;4.832;2023-04-08T08:57:17;102709.13;;;16.98;46.68
77452;BME280;66537;52.370;4.832;2023-04-08T08:59:45;102711.13;;;17.23;45.82
77452;BME280;66537;52.370;4.832;2023-04-08T09:02:23;102719.22;;;17.46;48.25
77452;BME280;66537;52.370;4.832;2023-04-08T09:04:55;102719.44;;;17.37;46.38
77452;BME280;66537;52.370;4.832;2023-04-08T09:07:23;102719.09;;;17.81;45.97
77452;BME280;66537;52.370;4.832;2023-04-08T09:09:50;102716.00;;;17.97;46.46
77452;BME280;66537;52.370;4.832;2023-04-08T09:12:16;102721.88;;;18.04;45.78
77452;BME280;66537;52.370;4.832;2023-04-08T09:14:41;102713.72;;;18.44;44.30
77452;BME280;66537;52.370;4.832;2023-04-08T09:17:07;102724.25;;;18.13;44.01
77452;BME280;66537;52.370;4.832;2023-04-08T09:19:32;102725.94;;;17.85;44.25
77452;BME280;66537;52.370;4.832;2023-04-08T09:22:05;102728.31;;;17.65;45.66
77452;BME280;66537;52.370;4.832;2023-04-08T09:24:34;102722.47;;;17.55;45.73
77452;BME280;66537;52.370;4.832;2023-04-08T09:27:01;102718.84;;;18.18;45.10
77452;BME280;66537;52.370;4.832;2023-04-08T09:29:26;102721.63;;;18.68;44.00
77452;BME280;66537;52.370;4.832;2023-04-08T09:31:59;102722.06;;;18.82;43.17
77452;BME280;66537;52.370;4.832;2023-04-08T09:34:26;102724.75;;;18.79;43.02
77452;BME280;66537;52.370;4.832;2023-04-08T09:36:52;102730.72;;;18.84;43.06
77452;BME280;66537;52.370;4.832;2023-04-08T09:39:18;102722.47;;;18.95;43.13
77452;BME280;66537;52.370;4.832;2023-04-08T09:41:47;102720.31;;;18.55;43.54
77452;BME280;66537;52.370;4.832;2023-04-08T09:44:14;102730.59;;;18.87;43.55
77452;BME280;66537;52.370;4.832;2023-04-08T09:47:00;102729.34;;;18.99;42.84
77452;BME280;66537;52.370;4.832;2023-04-08T09:49:42;102737.00;;;18.24;45.19
77452;BME280;66537;52.370;4.832;2023-04-08T09:52:14;102721.84;;;18.33;45.71
77452;BME280;66537;52.370;4.832;2023-04-08T09:57:51;102732.69;;;17.93;45.61
77452;BME280;66537;52.370;4.832;2023-04-08T10:00:24;102736.75;;;18.33;44.62
77452;BME280;66537;52.370;4.832;2023-04-08T10:05:45;102738.06;;;18.18;45.28
77452;BME280;66537;52.370;4.832;2023-04-08T10:08:11;102731.44;;;18.63;44.56
77452;BME280;66537;52.370;4.832;2023-04-08T10:10:38;102742.00;;;18.31;44.51
77452;BME280;66537;52.370;4.832;2023-04-08T10:13:05;102746.31;;;17.75;45.33
77452;BME280;66537;52.370;4.832;2023-04-08T10:15:32;102735.91;;;18.60;43.86
77452;BME280;66537;52.370;4.832;2023-04-08T10:22:58;102739.28;;;18.63;42.92
77452;BME280;66537;52.370;4.832;2023-04-08T10:25:31;102730.63;;;18.32;41.09
77452;BME280;66537;52.370;4.832;2023-04-08T10:28:00;102742.59;;;18.41;40.60
77452;BME280;66537;52.370;4.832;2023-04-08T10:32:56;102738.75;;;18.25;39.50
77452;BME280;66537;52.370;4.832;2023-04-08T10:35:48;102736.03;;;17.98;40.88
77452;BME280;66537;52.370;4.832;2023-04-08T10:38:15;102732.75;;;17.61;42.02
77452;BME280;66537;52.370;4.832;2023-04-08T10:40:42;102740.03;;;17.81;42.48
77452;BME280;66537;52.370;4.832;2023-04-08T10:43:12;102736.88;;;17.99;41.70
77452;BME280;66537;52.370;4.832;2023-04-08T10:45:39;102732.91;;;18.15;41.98
77452;BME280;66537;52.370;4.832;2023-04-08T10:48:24;102728.75;;;17.79;42.09
77452;BME280;66537;52.370;4.832;2023-04-08T10:53:32;102729.13;;;17.65;42.36
77452;BME280;66537;52.370;4.832;2023-04-08T10:56:08;102721.72;;;17.50;42.19
77452;BME280;66537;52.370;4.832;2023-04-08T10:58:35;102726.41;;;17.70;41.87
77452;BME280;66537;52.370;4.832;2023-04-08T11:01:05;102727.09;;;17.76;42.50
77452;BME280;66537;52.370;4.832;2023-04-08T11:03:35;102724.50;;;17.43;42.92
77452;BME280;66537;52.370;4.832;2023-04-08T11:06:01;102724.97;;;16.92;42.99
77452;BME280;66537;52.370;4.832;2023-04-08T11:08:31;102726.47;;;17.35;42.82
77452;BME280;66537;52.370;4.832;2023-04-08T11:10:57;102731.59;;;17.71;41.19
77452;BME280;66537;52.370;4.832;2023-04-08T11:13:25;102722.75;;;17.75;41.38
77452;BME280;66537;52.370;4.832;2023-04-08T11:15:51;102722.47;;;17.55;40.77
77452;BME280;66537;52.370;4.832;2023-04-08T11:18:16;102714.22;;;17.04;40.04
77452;BME280;66537;52.370;4.832;2023-04-08T11:20:45;102719.03;;;17.20;41.26
77452;BME280;66537;52.370;4.832;2023-04-08T11:23:15;102720.78;;;17.53;40.05
77452;BME280;66537;52.370;4.832;2023-04-08T11:25:41;102719.50;;;17.01;41.42
77452;BME280;66537;52.370;4.832;2023-04-08T11:28:07;102718.63;;;17.35;39.02
77452;BME280;66537;52.370;4.832;2023-04-08T11:30:33;102725.03;;;17.57;38.60
77452;BME280;66537;52.370;4.832;2023-04-08T11:32:58;102717.50;;;17.75;39.65
77452;BME280;66537;52.370;4.832;2023-04-08T11:35:28;102718.53;;;17.70;39.38
77452;BME280;66537;52.370;4.832;2023-04-08T11:37:54;102722.63;;;18.09;40.64
77452;BME280;66537;52.370;4.832;2023-04-08T11:40:20;102727.09;;;17.76;38.97
77452;BME280;66537;52.370;4.832;2023-04-08T11:42:49;102722.41;;;17.57;40.91
77452;BME280;66537;52.370;4.832;2023-04-08T11:45:17;102730.25;;;16.91;42.77
77452;BME280;66537;52.370;4.832;2023-04-08T11:47:44;102726.53;;;16.99;44.13
77452;BME280;66537;52.370;4.832;2023-04-08T11:50:10;102726.00;;;17.19;41.75
77452;BME280;66537;52.370;4.832;2023-04-08T11:52:43;102722.63;;;17.80;40.65
77452;BME280;66537;52.370;4.832;2023-04-08T11:55:09;102732.72;;;17.63;41.74
77452;BME280;66537;52.370;4.832;2023-04-08T11:57:35;102726.47;;;17.02;43.21
77452;BME280;66537;52.370;4.832;2023-04-08T12:00:02;102735.91;;;16.73;44.93
77452;BME280;66537;52.370;4.832;2023-04-08T12:02:29;102737.84;;;15.87;47.15
77452;BME280;66537;52.370;4.832;2023-04-08T12:04:55;102732.56;;;16.28;46.49
77452;BME280;66537;52.370;4.832;2023-04-08T12:07:20;102732.31;;;16.40;45.11
77452;BME280;66537;52.370;4.832;2023-04-08T12:09:46;102734.63;;;16.15;45.15
77452;BME280;66537;52.370;4.832;2023-04-08T12:12:11;102730.09;;;16.22;45.30
77452;BME280;66537;52.370;4.832;2023-04-08T12:14:37;102734.75;;;16.09;45.72
77452;BME280;66537;52.370;4.832;2023-04-08T12:17:02;102730.59;;;16.39;46.36
77452;BME280;66537;52.370;4.832;2023-04-08T12:19:27;102740.97;;;16.04;45.88
77452;BME280;66537;52.370;4.832;2023-04-08T12:21:52;102735.34;;;16.20;44.52
77452;BME280;66537;52.370;4.832;2023-04-08T12:24:18;102729.66;;;15.61;44.79
77452;BME280;66537;52.370;4.832;2023-04-08T12:26:43;102739.16;;;15.17;44.90
77452;BME280;66537;52.370;4.832;2023-04-08T12:29:08;102734.28;;;14.98;46.36
77452;BME280;66537;52.370;4.832;2023-04-08T12:31:35;102728.31;;;14.90;45.64
77452;BME280;66537;52.370;4.832;2023-04-08T12:34:01;102736.19;;;14.87;46.58
77452;BME280;66537;52.370;4.832;2023-04-08T12:36:26;102745.84;;;14.19;48.95
77452;BME280;66537;52.370;4.832;2023-04-08T12:38:52;102739.94;;;14.08;50.25
77452;BME280;66537;52.370;4.832;2023-04-08T12:41:17;102738.13;;;14.13;50.64
77452;BME280;66537;52.370;4.832;2023-04-08T12:43:42;102738.50;;;13.85;50.18
77452;BME280;66537;52.370;4.832;2023-04-08T12:46:08;102738.38;;;13.94;50.73
77452;BME280;66537;52.370;4.832;2023-04-08T12:48:33;102735.53;;;14.12;49.31
77452;BME280;66537;52.370;4.832;2023-04-08T12:50:58;102737.66;;;13.81;47.09
77452;BME280;66537;52.370;4.832;2023-04-08T12:53:23;102730.91;;;13.65;47.59
77452;BME280;66537;52.370;4.832;2023-04-08T12:55:49;102726.41;;;13.81;49.46
77452;BME280;66537;52.370;4.832;2023-04-08T12:58:15;102728.72;;;14.02;50.30
77452;BME280;66537;52.370;4.832;2023-04-08T13:00:41;102725.41;;;13.91;50.18
77452;BME280;66537;52.370;4.832;2023-04-08T13:03:11;102721.50;;;14.23;49.29
77452;BME280;66537;52.370;4.832;2023-04-08T13:05:36;102718.94;;;14.20;49.07
77452;BME280;66537;52.370;4.832;2023-04-08T13:08:01;102719.31;;;13.93;50.63
77452;BME280;66537;52.370;4.832;2023-04-08T13:10:27;102720.59;;;13.57;49.28
77452;BME280;66537;52.370;4.832;2023-04-08T13:12:52;102722.84;;;13.88;47.81
77452;BME280;66537;52.370;4.832;2023-04-08T13:15:17;102714.22;;;13.84;50.02